sensor_id;sensor_type;location;lat;lon;timestamp;pressure;altitude;pressure_sealevel;temperature;humidity
8061;BME280;4073;42.626;25.386;2022-12-07T00:00:29;97339.81;;;7.30;100.00
8061;BME280;4073;42.626;25.386;2022-12-07T00:02:55;97313.03;;;7.15;100.00
8061;BME280;4073;42.626;25.386;2022-12-07T00:05:20;97334.56;;;7.14;100.00
8061;BME280;4073;42.626;25.386;2022-12-07T00:07:46;97326.53;;;7.09;100.00
8061;BME280;4073;42.626;25.386;2022-12-07T00:10:11;97320.06;;;7.05;100.00
8061;BME280;4073;42.626;25.386;2022-12-07T00:12:37;97326.19;;;7.05;100.00
8061;BME280;4073;42.626;25.386;2022-12-07T00:15:02;97326.69;;;7.02;100.00
8061;BME280;4073;42.626;25.386;2022-12-07T00:17:28;97331.69;;;6.99;100.00
8061;BME280;4073;42.626;25.386;2022-12-07T00:19:53;97336.63;;;6.90;100.00
8061;BME280;4073;42.626;25.386;2022-12-07T00:22:19;97330.75;;;6.88;100.00
8061;BME280;4073;42.626;25.386;2022-12-07T00:24:44;97328.03;;;6.83;100.00
8061;BME280;4073;42.626;25.386;2022-12-07T00:27:09;97335.66;;;6.80;100.00
8061;BME280;4073;42.626;25.386;2022-12-07T00:29:35;97318.28;;;6.72;100.00
8061;BME280;4073;42.626;25.386;2022-12-07T00:32:02;97321.97;;;6.71;100.00
8061;BME280;4073;42.626;25.386;2022-12-07T00:34:28;97328.34;;;6.70;100.00
8061;BME280;4073;42.626;25.386;2022-12-07T00:36:53;97316.94;;;6.53;100.00
8061;BME280;4073;42.626;25.386;2022-12-07T00:39:19;97326.66;;;6.64;100.00
8061;BME280;4073;42.626;25.386;2022-12-07T00:41:44;97332.56;;;6.66;100.00
8061;BME280;4073;42.626;25.386;2022-12-07T00:44:10;97329.41;;;6.69;100.00
8061;BME280;4073;42.626;25.386;2022-12-07T00:46:35;97324.63;;;6.71;100.00
8061;BME280;4073;42.626;25.386;2022-12-07T00:49:01;97326.25;;;6.72;100.00
8061;BME280;4073;42.626;25.386;2022-12-07T00:51:26;97332.13;;;6.74;100.00
8061;BME280;4073;42.626;25.386;2022-12-07T00:53:52;97323.69;;;6.77;100.00
8061;BME280;4073;42.626;25.386;2022-12-07T00:56:23;97314.16;;;6.81;100.00
8061;BME280;4073;42.626;25.386;2022-12-07T00:58:53;97312.06;;;6.83;100.00
8061;BME280;4073;42.626;25.386;2022-12-07T01:01:19;97312.38;;;6.87;100.00
8061;BME280;4073;42.626;25.386;2022-12-07T01:03:45;97313.97;;;6.88;100.00
8061;BME280;4073;42.626;25.386;2022-12-07T01:06:14;97306.75;;;6.83;100.00
8061;BME280;4073;42.626;25.386;2022-12-07T01:08:40;97312.72;;;6.90;100.00
8061;BME280;4073;42.626;25.386;2022-12-07T01:11:07;97303.69;;;6.91;100.00
8061;BME280;4073;42.626;25.386;2022-12-07T01:13:35;97305.84;;;6.94;100.00
8061;BME280;4073;42.626;25.386;2022-12-07T01:16:03;97302.94;;;6.96;100.00
8061;BME280;4073;42.626;25.386;2022-12-07T01:18:30;97300.44;;;6.89;100.00
8061;BME280;4073;42.626;25.386;2022-12-07T01:21:14;97304.53;;;6.97;100.00
8061;BME280;4073;42.626;25.386;2022-12-07T01:23:40;97311.72;;;6.96;100.00
8061;BME280;4073;42.626;25.386;2022-12-07T01:26:09;97307.44;;;6.95;100.00
8061;BME280;4073;42.626;25.386;2022-12-07T01:28:35;97304.00;;;6.95;100.00
8061;BME280;4073;42.626;25.386;2022-12-07T01:31:06;97304.31;;;6.98;100.00
8061;BME280;4073;42.626;25.386;2022-12-07T01:33:34;97298.16;;;6.98;100.00
8061;BME280;4073;42.626;25.386;2022-12-07T01:36:07;97296.34;;;6.98;100.00
8061;BME280;4073;42.626;25.386;2022-12-07T01:38:33;97290.19;;;6.98;100.00
8061;BME280;4073;42.626;25.386;2022-12-07T01:41:00;97290.44;;;6.96;100.00
8061;BME280;4073;42.626;25.386;2022-12-07T01:43:27;97289.91;;;6.94;100.00
8061;BME280;4073;42.626;25.386;2022-12-07T01:45:54;97286.63;;;6.87;100.00
8061;BME280;4073;42.626;25.386;2022-12-07T01:48:27;97279.13;;;6.84;100.00
8061;BME280;4073;42.626;25.386;2022-12-07T01:50:56;97279.38;;;6.83;100.00
8061;BME280;4073;42.626;25.386;2022-12-07T01:53:27;97284.13;;;6.81;100.00
8061;BME280;4073;42.626;25.386;2022-12-07T01:55:54;97282.28;;;6.81;100.00
8061;BME280;4073;42.626;25.386;2022-12-07T01:58:21;97282.28;;;6.81;100.00
8061;BME280;4073;42.626;25.386;2022-12-07T02:00:47;97277.69;;;6.77;100.00
8061;BME280;4073;42.626;25.386;2022-12-07T02:03:22;97273.69;;;6.74;100.00
8061;BME280;4073;42.626;25.386;2022-12-07T02:05:50;97278.94;;;6.69;100.00
8061;BME280;4073;42.626;25.386;2022-12-07T02:08:16;97271.75;;;6.70;100.00
8061;BME280;4073;42.626;25.386;2022-12-07T02:10:42;97272.72;;;6.64;100.00
8061;BME280;4073;42.626;25.386;2022-12-07T02:13:38;97270.00;;;6.59;100.00
8061;BME280;4073;42.626;25.386;2022-12-07T02:16:14;97268.69;;;6.61;100.00
8061;BME280;4073;42.626;25.386;2022-12-07T02:32:15;97260.34;;;6.69;100.00
8061;BME280;4073;42.626;25.386;2022-12-07T02:34:53;97256.63;;;6.70;100.00
8061;BME280;4073;42.626;25.386;2022-12-07T02:40:04;97257.59;;;6.64;100.00
8061;BME280;4073;42.626;25.386;2022-12-07T02:42:35;97257.03;;;6.62;100.00
8061;BME280;4073;42.626;25.386;2022-12-07T02:45:04;97253.50;;;6.57;100.00
8061;BME280;4073;42.626;25.386;2022-12-07T02:47:31;97242.31;;;6.55;100.00
8061;BME280;4073;42.626;25.386;2022-12-07T02:49:58;97237.75;;;6.50;100.00
8061;BME280;4073;42.626;25.386;2022-12-07T02:52:24;97245.28;;;6.58;100.00
8061;BME280;4073;42.626;25.386;2022-12-07T02:54:49;97242.88;;;6.57;100.00
8061;BME280;4073;42.626;25.386;2022-12-07T03:00:00;97246.66;;;6.61;100.00
8061;BME280;4073;42.626;25.386;2022-12-07T03:13:11;97244.88;;;6.66;100.00
8061;BME280;4073;42.626;25.386;2022-12-07T03:16:29;97241.22;;;6.72;100.00
8061;BME280;4073;42.626;25.386;2022-12-07T03:18:39;97245.25;;;6.75;100.00
8061;BME280;4073;42.626;25.386;2022-12-07T03:21:12;97247.16;;;6.79;100.00
8061;BME280;4073;42.626;25.386;2022-12-07T03:23:41;97253.88;;;6.82;100.00
8061;BME280;4073;42.626;25.386;2022-12-07T03:26:11;97250.97;;;6.83;100.00
8061;BME280;4073;42.626;25.386;2022-12-07T03:28:40;97251.13;;;6.77;100.00
8061;BME280;4073;42.626;25.386;2022-12-07T03:31:22;97252.00;;;6.82;100.00
8061;BME280;4073;42.626;25.386;2022-12-07T03:33:55;97252.47;;;6.79;100.00
8061;BME280;4073;42.626;25.386;2022-12-07T03:36:47;97247.84;;;6.70;100.00
8061;BME280;4073;42.626;25.386;2022-12-07T03:39:39;97245.56;;;6.78;100.00
8061;BME280;4073;42.626;25.386;2022-12-07T03:42:07;97242.66;;;6.80;100.00
8061;BME280;4073;42.626;25.386;2022-12-07T03:44:34;97249.34;;;6.82;100.00
8061;BME280;4073;42.626;25.386;2022-12-07T03:50:25;97232.03;;;6.80;100.00
8061;BME280;4073;42.626;25.386;2022-12-07T03:52:59;97234.53;;;6.86;100.00
8061;BME280;4073;42.626;25.386;2022-12-07T03:55:34;97236.38;;;6.86;100.00
8061;BME280;4073;42.626;25.386;2022-12-07T03:58:07;97244.63;;;6.89;100.00
8061;BME280;4073;42.626;25.386;2022-12-07T04:00:34;97245.69;;;6.88;100.00
8061;BME280;4073;42.626;25.386;2022-12-07T04:03:00;97237.97;;;6.87;100.00
8061;BME280;4073;42.626;25.386;2022-12-07T04:05:25;97233.97;;;6.84;100.00
8061;BME280;4073;42.626;25.386;2022-12-07T04:07:51;97241.34;;;6.82;100.00
8061;BME280;4073;42.626;25.386;2022-12-07T04:10:17;97238.16;;;6.80;100.00
8061;BME280;4073;42.626;25.386;2022-12-07T04:12:42;97245.56;;;6.78;100.00
8061;BME280;4073;42.626;25.386;2022-12-07T04:15:08;97242.91;;;6.78;100.00
8061;BME280;4073;42.626;25.386;2022-12-07T04:17:34;97233.88;;;6.79;100.00
8061;BME280;4073;42.626;25.386;2022-12-07T04:20:00;97230.44;;;6.79;100.00
8061;BME280;4073;42.626;25.386;2022-12-07T04:22:25;97230.09;;;6.75;100.00
8061;BME280;4073;42.626;25.386;2022-12-07T04:24:50;97229.56;;;6.73;100.00
8061;BME280;4073;42.626;25.386;2022-12-07T04:27:16;97238.56;;;6.72;100.00
8061;BME280;4073;42.626;25.386;2022-12-07T04:29:41;97232.47;;;6.72;100.00
8061;BME280;4073;42.626;25.386;2022-12-07T04:32:07;97230.84;;;6.71;100.00
8061;BME280;4073;42.626;25.386;2022-12-07T04:34:32;97232.72;;;6.70;100.00
8061;BME280;4073;42.626;25.386;2022-12-07T04:36:58;97227.41;;;6.70;100.00
8061;BME280;4073;42.626;25.386;2022-12-07T04:39:31;97224.88;;;6.80;100.00
8061;BME280;4073;42.626;25.386;2022-12-07T04:41:57;97223.63;;;6.88;100.00
8061;BME280;4073;42.626;25.386;2022-12-07T04:44:24;97214.38;;;6.90;100.00
8061;BME280;4073;42.626;25.386;2022-12-07T04:46:51;97214.13;;;6.92;100.00
8061;BME280;4073;42.626;25.386;2022-12-07T04:49:17;97223.56;;;6.83;100.00
8061;BME280;4073;42.626;25.386;2022-12-07T04:51:43;97213.91;;;6.77;100.00
8061;BME280;4073;42.626;25.386;2022-12-07T04:54:10;97217.78;;;6.86;100.00
8061;BME280;4073;42.626;25.386;2022-12-07T04:56:35;97225.75;;;6.86;100.00
8061;BME280;4073;42.626;25.386;2022-12-07T04:59:02;97224.44;;;6.88;100.00
8061;BME280;4073;42.626;25.386;2022-12-07T05:01:28;97227.34;;;6.87;100.00
8061;BME280;4073;42.626;25.386;2022-12-07T05:03:53;97224.94;;;6.85;100.00
8061;BME280;4073;42.626;25.386;2022-12-07T05:06:19;97227.03;;;6.83;100.00
8061;BME280;4073;42.626;25.386;2022-12-07T05:08:45;97232.53;;;6.77;100.00
8061;BME280;4073;42.626;25.386;2022-12-07T05:11:11;97231.75;;;6.76;100.00
8061;BME280;4073;42.626;25.386;2022-12-07T05:13:56;97220.06;;;6.77;100.00
8061;BME280;4073;42.626;25.386;2022-12-07T05:16:22;97225.13;;;6.79;100.00
8061;BME280;4073;42.626;25.386;2022-12-07T05:18:47;97222.94;;;6.76;100.00
8061;BME280;4073;42.626;25.386;2022-12-07T05:21:13;97222.22;;;6.80;100.00
8061;BME280;4073;42.626;25.386;2022-12-07T05:23:38;97227.28;;;6.82;100.00
8061;BME280;4073;42.626;25.386;2022-12-07T05:26:04;97222.75;;;6.82;100.00
8061;BME280;4073;42.626;25.386;2022-12-07T05:28:29;97220.09;;;6.82;100.00
8061;BME280;4073;42.626;25.386;2022-12-07T05:30:55;97221.16;;;6.81;100.00
8061;BME280;4073;42.626;25.386;2022-12-07T05:33:20;97224.50;;;6.72;100.00
8061;BME280;4073;42.626;25.386;2022-12-07T05:35:45;97222.72;;;6.77;100.00
8061;BME280;4073;42.626;25.386;2022-12-07T05:38:11;97227.78;;;6.79;100.00
8061;BME280;4073;42.626;25.386;2022-12-07T05:40:37;97224.75;;;6.70;100.00
8061;BME280;4073;42.626;25.386;2022-12-07T05:43:02;97227.41;;;6.70;100.00
8061;BME280;4073;42.626;25.386;2022-12-07T05:45:28;97232.22;;;6.73;100.00
8061;BME280;4073;42.626;25.386;2022-12-07T05:47:53;97227.22;;;6.77;100.00
8061;BME280;4073;42.626;25.386;2022-12-07T05:50:19;97223.81;;;6.81;100.00
8061;BME280;4073;42.626;25.386;2022-12-07T05:52:44;97237.91;;;6.82;100.00
8061;BME280;4073;42.626;25.386;2022-12-07T05:55:10;97237.44;;;6.85;100.00
8061;BME280;4073;42.626;25.386;2022-12-07T05:57:35;97246.13;;;6.80;100.00
8061;BME280;4073;42.626;25.386;2022-12-07T06:00:01;97256.13;;;6.73;100.00
8061;BME280;4073;42.626;25.386;2022-12-07T06:02:27;97255.69;;;6.81;100.00
8061;BME280;4073;42.626;25.386;2022-12-07T06:04:52;97253.91;;;6.87;100.00
8061;BME280;4073;42.626;25.386;2022-12-07T06:07:18;97244.16;;;6.92;100.00
8061;BME280;4073;42.626;25.386;2022-12-07T06:09:43;97247.91;;;6.96;100.00
8061;BME280;4073;42.626;25.386;2022-12-07T06:12:11;97250.34;;;6.98;100.00
8061;BME280;4073;42.626;25.386;2022-12-07T06:15:06;97239.03;;;7.07;100.00
8061;BME280;4073;42.626;25.386;2022-12-07T06:17:32;97244.47;;;7.17;100.00
8061;BME280;4073;42.626;25.386;2022-12-07T06:19:57;97239.94;;;7.18;100.00
8061;BME280;4073;42.626;25.386;2022-12-07T06:22:23;97254.63;;;7.20;100.00
8061;BME280;4073;42.626;25.386;2022-12-07T06:24:49;97250.03;;;7.16;100.00
8061;BME280;4073;42.626;25.386;2022-12-07T06:27:14;97243.91;;;7.15;100.00
8061;BME280;4073;42.626;25.386;2022-12-07T06:29:40;97255.72;;;7.03;100.00
8061;BME280;4073;42.626;25.386;2022-12-07T06:32:05;97260.84;;;7.09;100.00
8061;BME280;4073;42.626;25.386;2022-12-07T06:34:31;97242.81;;;7.11;100.00
8061;BME280;4073;42.626;25.386;2022-12-07T06:36:56;97240.97;;;7.12;100.00
8061;BME280;4073;42.626;25.386;2022-12-07T06:39:25;97250.91;;;7.21;100.00
8061;BME280;4073;42.626;25.386;2022-12-07T06:41:52;97251.53;;;7.28;100.00
8061;BME280;4073;42.626;25.386;2022-12-07T06:44:18;97243.03;;;7.31;100.00
8061;BME280;4073;42.626;25.386;2022-12-07T06:46:44;97251.91;;;7.42;100.00
8061;BME280;4073;42.626;25.386;2022-12-07T06:49:09;97245.75;;;7.36;100.00
8061;BME280;4073;42.626;25.386;2022-12-07T06:51:35;97249.88;;;7.49;100.00
8061;BME280;4073;42.626;25.386;2022-12-07T06:54:03;97240.03;;;7.49;100.00
8061;BME280;4073;42.626;25.386;2022-12-07T06:56:29;97246.28;;;7.60;100.00
8061;BME280;4073;42.626;25.386;2022-12-07T06:58:54;97253.25;;;7.66;100.00
8061;BME280;4073;42.626;25.386;2022-12-07T07:01:20;97245.34;;;7.76;100.00
8061;BME280;4073;42.626;25.386;2022-12-07T07:03:46;97243.09;;;7.89;100.00
8061;BME280;4073;42.626;25.386;2022-12-07T07:06:12;97242.44;;;8.04;100.00
8061;BME280;4073;42.626;25.386;2022-12-07T07:08:39;97243.06;;;8.16;100.00
8061;BME280;4073;42.626;25.386;2022-12-07T07:11:05;97244.53;;;8.29;100.00
8061;BME280;4073;42.626;25.386;2022-12-07T07:13:31;97249.16;;;8.43;100.00
8061;BME280;4073;42.626;25.386;2022-12-07T07:15:57;97254.41;;;8.70;100.00
8061;BME280;4073;42.626;25.386;2022-12-07T07:18:23;97255.88;;;8.92;100.00
8061;BME280;4073;42.626;25.386;2022-12-07T07:20:50;97266.66;;;9.17;100.00
8061;BME280;4073;42.626;25.386;2022-12-07T07:23:16;97228.56;;;9.27;100.00
8061;BME280;4073;42.626;25.386;2022-12-07T07:25:42;97267.34;;;9.59;100.00
8061;BME280;4073;42.626;25.386;2022-12-07T07:28:09;97270.06;;;9.79;100.00
8061;BME280;4073;42.626;25.386;2022-12-07T07:30:35;97273.56;;;9.95;100.00
8061;BME280;4073;42.626;25.386;2022-12-07T07:33:01;97278.94;;;10.00;100.00
8061;BME280;4073;42.626;25.386;2022-12-07T07:35:28;97273.91;;;10.08;100.00
8061;BME280;4073;42.626;25.386;2022-12-07T07:37:54;97268.56;;;10.33;100.00
8061;BME280;4073;42.626;25.386;2022-12-07T07:40:19;97277.09;;;10.71;100.00
8061;BME280;4073;42.626;25.386;2022-12-07T07:42:49;97289.19;;;11.52;100.00
8061;BME280;4073;42.626;25.386;2022-12-07T07:45:14;97295.28;;;12.16;100.00
8061;BME280;4073;42.626;25.386;2022-12-07T07:47:39;97296.13;;;12.78;100.00
8061;BME280;4073;42.626;25.386;2022-12-07T07:50:05;97297.81;;;13.50;100.00
8061;BME280;4073;42.626;25.386;2022-12-07T07:52:31;97298.75;;;14.01;100.00
8061;BME280;4073;42.626;25.386;2022-12-07T07:54:57;97303.53;;;14.46;100.00
8061;BME280;4073;42.626;25.386;2022-12-07T07:57:22;97294.28;;;14.84;75.82
8061;BME280;4073;42.626;25.386;2022-12-07T07:59:48;97302.88;;;15.59;71.50
8061;BME280;4073;42.626;25.386;2022-12-07T08:02:16;97298.63;;;16.07;69.25
8061;BME280;4073;42.626;25.386;2022-12-07T08:04:42;97295.44;;;16.05;68.07
8061;BME280;4073;42.626;25.386;2022-12-07T08:07:07;97292.22;;;16.17;65.65
8061;BME280;4073;42.626;25.386;2022-12-07T08:09:33;97294.22;;;15.98;66.42
8061;BME280;4073;42.626;25.386;2022-12-07T08:11:58;97291.38;;;15.53;66.62
8061;BME280;4073;42.626;25.386;2022-12-07T08:14:24;97297.31;;;15.10;68.49
8061;BME280;4073;42.626;25.386;2022-12-07T08:16:49;97292.44;;;14.66;70.06
8061;BME280;4073;42.626;25.386;2022-12-07T08:19:15;97286.50;;;14.51;70.93
8061;BME280;4073;42.626;25.386;2022-12-07T08:21:40;97278.38;;;14.37;71.61
8061;BME280;4073;42.626;25.386;2022-12-07T08:24:07;97289.09;;;14.24;71.95
8061;BME280;4073;42.626;25.386;2022-12-07T08:26:32;97291.94;;;13.90;71.75
8061;BME280;4073;42.626;25.386;2022-12-07T08:28:58;97285.69;;;13.95;72.57
8061;BME280;4073;42.626;25.386;2022-12-07T08:31:24;97288.09;;;14.15;71.74
8061;BME280;4073;42.626;25.386;2022-12-07T08:33:49;97286.59;;;14.27;72.61
8061;BME280;4073;42.626;25.386;2022-12-07T08:36:16;97278.50;;;14.46;71.49
8061;BME280;4073;42.626;25.386;2022-12-07T08:38:42;97283.28;;;14.67;71.88
8061;BME280;4073;42.626;25.386;2022-12-07T08:41:08;97281.34;;;15.00;69.77
8061;BME280;4073;42.626;25.386;2022-12-07T08:43:35;97282.75;;;14.97;70.27
8061;BME280;4073;42.626;25.386;2022-12-07T08:48:38;97286.41;;;15.61;66.88
8061;BME280;4073;42.626;25.386;2022-12-07T08:51:05;97284.72;;;16.14;63.93
8061;BME280;4073;42.626;25.386;2022-12-07T08:53:31;97276.47;;;16.32;62.98
8061;BME280;4073;42.626;25.386;2022-12-07T08:55:58;97266.28;;;15.94;65.81
8061;BME280;4073;42.626;25.386;2022-12-07T08:58:24;97268.03;;;15.63;65.85
8061;BME280;4073;42.626;25.386;2022-12-07T09:00:49;97267.72;;;15.50;66.45
8061;BME280;4073;42.626;25.386;2022-12-07T09:03:15;97262.63;;;15.08;68.15
8061;BME280;4073;42.626;25.386;2022-12-07T09:05:41;97267.91;;;15.27;67.21
8061;BME280;4073;42.626;25.386;2022-12-07T09:08:07;97260.50;;;15.05;68.83
8061;BME280;4073;42.626;25.386;2022-12-07T09:10:33;97257.41;;;14.98;68.45
8061;BME280;4073;42.626;25.386;2022-12-07T09:12:58;97250.06;;;15.17;67.24
8061;BME280;4073;42.626;25.386;2022-12-07T09:15:29;97256.56;;;15.43;67.46
8061;BME280;4073;42.626;25.386;2022-12-07T09:17:56;97255.66;;;15.48;67.17
8061;BME280;4073;42.626;25.386;2022-12-07T09:20:22;97254.25;;;15.64;66.41
8061;BME280;4073;42.626;25.386;2022-12-07T09:22:48;97243.81;;;15.98;63.91
8061;BME280;4073;42.626;25.386;2022-12-07T09:25:13;97244.72;;;15.94;66.89
8061;BME280;4073;42.626;25.386;2022-12-07T09:27:39;97248.16;;;16.43;61.62
8061;BME280;4073;42.626;25.386;2022-12-07T09:30:05;97238.22;;;16.74;61.52
8061;BME280;4073;42.626;25.386;2022-12-07T09:32:31;97240.56;;;16.67;60.68
8061;BME280;4073;42.626;25.386;2022-12-07T09:34:57;97236.88;;;16.63;61.84
8061;BME280;4073;42.626;25.386;2022-12-07T09:37:22;97244.38;;;16.66;60.57
8061;BME280;4073;42.626;25.386;2022-12-07T09:39:48;97237.91;;;16.76;59.34
8061;BME280;4073;42.626;25.386;2022-12-07T09:42:36;97216.50;;;16.57;60.10
8061;BME280;4073;42.626;25.386;2022-12-07T09:45:05;97228.16;;;16.66;59.46
8061;BME280;4073;42.626;25.386;2022-12-07T09:47:32;97226.63;;;16.30;62.08
8061;BME280;4073;42.626;25.386;2022-12-07T09:50:14;97226.97;;;15.79;60.34
8061;BME280;4073;42.626;25.386;2022-12-07T09:52:40;97218.31;;;15.28;64.06
8061;BME280;4073;42.626;25.386;2022-12-07T09:55:15;97219.91;;;14.75;66.11
8061;BME280;4073;42.626;25.386;2022-12-07T09:57:41;97221.81;;;14.42;67.03
8061;BME280;4073;42.626;25.386;2022-12-07T10:00:17;97212.59;;;13.93;69.35
8061;BME280;4073;42.626;25.386;2022-12-07T10:05:39;97206.44;;;13.13;72.46
8061;BME280;4073;42.626;25.386;2022-12-07T10:08:10;97201.16;;;12.79;75.23
8061;BME280;4073;42.626;25.386;2022-12-07T10:10:36;97203.28;;;12.54;75.65
8061;BME280;4073;42.626;25.386;2022-12-07T10:13:37;97193.31;;;12.31;76.47
8061;BME280;4073;42.626;25.386;2022-12-07T10:16:03;97185.13;;;12.17;78.77
8061;BME280;4073;42.626;25.386;2022-12-07T10:18:37;97188.03;;;12.21;78.95
8061;BME280;4073;42.626;25.386;2022-12-07T10:21:13;97178.94;;;12.22;78.89
8061;BME280;4073;42.626;25.386;2022-12-07T10:23:42;97176.81;;;12.19;77.74
8061;BME280;4073;42.626;25.386;2022-12-07T10:26:29;97181.84;;;12.25;76.38
8061;BME280;4073;42.626;25.386;2022-12-07T10:28:58;97174.25;;;12.32;76.83
8061;BME280;4073;42.626;25.386;2022-12-07T10:31:24;97150.78;;;12.19;76.86
8061;BME280;4073;42.626;25.386;2022-12-07T10:33:53;97178.50;;;12.38;76.80
8061;BME280;4073;42.626;25.386;2022-12-07T10:38:48;97170.28;;;12.30;78.98
8061;BME280;4073;42.626;25.386;2022-12-07T10:41:14;97155.59;;;12.22;76.99
8061;BME280;4073;42.626;25.386;2022-12-07T10:43:52;97160.28;;;12.40;77.44
8061;BME280;4073;42.626;25.386;2022-12-07T10:46:39;97166.38;;;12.46;77.72
8061;BME280;4073;42.626;25.386;2022-12-07T11:00:23;97147.69;;;13.12;74.63
8061;BME280;4073;42.626;25.386;2022-12-07T11:05:53;97142.78;;;13.19;73.51
8061;BME280;4073;42.626;25.386;2022-12-07T11:11:09;97135.88;;;13.31;71.78
8061;BME280;4073;42.626;25.386;2022-12-07T11:16:22;97124.63;;;13.29;71.24
8061;BME280;4073;42.626;25.386;2022-12-07T11:21:27;97122.44;;;13.13;72.76
8061;BME280;4073;42.626;25.386;2022-12-07T11:36:02;97111.59;;;12.75;74.15
8061;BME280;4073;42.626;25.386;2022-12-07T11:42:00;97100.31;;;12.31;73.56
8061;BME280;4073;42.626;25.386;2022-12-07T11:45:02;97094.75;;;12.23;74.38
8061;BME280;4073;42.626;25.386;2022-12-07T11:47:40;97090.81;;;12.15;76.23
8061;BME280;4073;42.626;25.386;2022-12-07T12:03:49;97072.03;;;13.28;72.02
8061;BME280;4073;42.626;25.386;2022-12-07T12:06:16;97070.75;;;13.58;72.17
8061;BME280;4073;42.626;25.386;2022-12-07T12:14:26;97075.56;;;14.25;68.43
8061;BME280;4073;42.626;25.386;2022-12-07T12:17:38;97066.00;;;14.32;69.18
8061;BME280;4073;42.626;25.386;2022-12-07T12:22:41;97077.19;;;14.07;67.83
8061;BME280;4073;42.626;25.386;2022-12-07T12:25:19;97075.09;;;13.72;68.45
8061;BME280;4073;42.626;25.386;2022-12-07T12:27:47;97067.50;;;13.42;68.79
8061;BME280;4073;42.626;25.386;2022-12-07T12:30:34;97058.81;;;13.13;70.80
8061;BME280;4073;42.626;25.386;2022-12-07T12:33:22;97058.56;;;12.91;71.02
8061;BME280;4073;42.626;25.386;2022-12-07T12:36:45;97068.53;;;12.67;71.92
8061;BME280;4073;42.626;25.386;2022-12-07T12:41:52;97058.38;;;12.40;73.07
8061;BME280;4073;42.626;25.386;2022-12-07T12:46:59;97019.22;;;11.92;74.18
8061;BME280;4073;42.626;25.386;2022-12-07T12:52:00;97055.03;;;12.01;75.22
8061;BME280;4073;42.626;25.386;2022-12-07T12:54:33;97060.22;;;11.93;76.37
8061;BME280;4073;42.626;25.386;2022-12-07T12:59:30;97055.28;;;11.76;77.07
8061;BME280;4073;42.626;25.386;2022-12-07T13:15:44;97064.91;;;12.29;76.88
8061;BME280;4073;42.626;25.386;2022-12-07T13:26:02;97054.03;;;12.21;77.83
8061;BME280;4073;42.626;25.386;2022-12-07T13:28:36;97055.47;;;12.13;77.74
8061;BME280;4073;42.626;25.386;2022-12-07T13:31:10;97059.50;;;12.11;79.01
8061;BME280;4073;42.626;25.386;2022-12-07T13:33:37;97054.22;;;12.01;79.32
8061;BME280;4073;42.626;25.386;2022-12-07T13:36:03;97066.56;;;12.02;78.28
8061;BME280;4073;42.626;25.386;2022-12-07T13:38:31;97063.34;;;12.00;79.46
8061;BME280;4073;42.626;25.386;2022-12-07T13:41:05;97062.06;;;11.97;79.70
8061;BME280;4073;42.626;25.386;2022-12-07T13:43:30;97058.66;;;11.87;78.95
8061;BME280;4073;42.626;25.386;2022-12-07T13:45:57;97062.75;;;11.79;79.15
8061;BME280;4073;42.626;25.386;2022-12-07T13:48:43;97057.22;;;11.71;79.97
8061;BME280;4073;42.626;25.386;2022-12-07T13:51:24;97053.78;;;11.60;81.01
8061;BME280;4073;42.626;25.386;2022-12-07T13:53:55;97048.50;;;11.50;81.73
8061;BME280;4073;42.626;25.386;2022-12-07T13:56:33;97054.97;;;11.44;81.52
8061;BME280;4073;42.626;25.386;2022-12-07T13:58:59;97059.56;;;11.39;81.87
8061;BME280;4073;42.626;25.386;2022-12-07T14:01:25;97054.06;;;11.25;82.59
8061;BME280;4073;42.626;25.386;2022-12-07T14:03:51;97053.03;;;11.21;83.23
8061;BME280;4073;42.626;25.386;2022-12-07T14:06:18;97056.28;;;11.13;83.74
8061;BME280;4073;42.626;25.386;2022-12-07T14:08:45;97052.03;;;11.07;83.60
8061;BME280;4073;42.626;25.386;2022-12-07T14:11:17;97052.50;;;11.14;84.34
8061;BME280;4073;42.626;25.386;2022-12-07T14:13:56;97050.97;;;11.08;85.59
8061;BME280;4073;42.626;25.386;2022-12-07T14:16:34;97045.94;;;10.97;85.26
8061;BME280;4073;42.626;25.386;2022-12-07T14:19:03;97057.97;;;10.99;86.32
8061;BME280;4073;42.626;25.386;2022-12-07T14:21:33;97052.94;;;10.88;86.62
8061;BME280;4073;42.626;25.386;2022-12-07T14:24:17;97051.59;;;10.90;86.71
8061;BME280;4073;42.626;25.386;2022-12-07T14:26:48;97048.69;;;10.87;87.49
8061;BME280;4073;42.626;25.386;2022-12-07T14:29:32;97043.63;;;10.80;88.30
8061;BME280;4073;42.626;25.386;2022-12-07T14:32:43;97056.22;;;10.75;88.49
8061;BME280;4073;42.626;25.386;2022-12-07T14:34:57;97046.66;;;10.69;88.84
8061;BME280;4073;42.626;25.386;2022-12-07T14:37:24;97054.66;;;10.64;89.28
8061;BME280;4073;42.626;25.386;2022-12-07T14:39:49;97052.28;;;10.62;90.37
8061;BME280;4073;42.626;25.386;2022-12-07T14:42:15;97046.97;;;10.52;92.06
8061;BME280;4073;42.626;25.386;2022-12-07T14:44:41;97035.53;;;10.41;93.04
8061;BME280;4073;42.626;25.386;2022-12-07T14:47:10;97044.59;;;10.40;93.36
8061;BME280;4073;42.626;25.386;2022-12-07T14:49:35;97046.78;;;10.33;94.06
8061;BME280;4073;42.626;25.386;2022-12-07T14:52:01;97047.06;;;10.27;94.81
8061;BME280;4073;42.626;25.386;2022-12-07T14:54:30;97034.00;;;10.15;96.20
8061;BME280;4073;42.626;25.386;2022-12-07T14:56:56;97047.09;;;10.12;97.22
8061;BME280;4073;42.626;25.386;2022-12-07T14:59:21;97047.63;;;10.04;97.81
8061;BME280;4073;42.626;25.386;2022-12-07T15:01:47;97043.91;;;10.00;98.63
8061;BME280;4073;42.626;25.386;2022-12-07T15:04:12;97048.19;;;9.96;99.96
8061;BME280;4073;42.626;25.386;2022-12-07T15:06:38;97040.47;;;9.84;100.00
8061;BME280;4073;42.626;25.386;2022-12-07T15:09:04;97046.06;;;9.88;100.00
8061;BME280;4073;42.626;25.386;2022-12-07T15:11:29;97045.25;;;9.82;100.00
8061;BME280;4073;42.626;25.386;2022-12-07T15:13:55;97044.22;;;9.78;100.00
8061;BME280;4073;42.626;25.386;2022-12-07T15:16:33;97035.66;;;9.66;100.00
8061;BME280;4073;42.626;25.386;2022-12-07T15:18:58;97050.91;;;9.66;100.00
8061;BME280;4073;42.626;25.386;2022-12-07T15:21:24;97051.72;;;9.56;100.00
8061;BME280;4073;42.626;25.386;2022-12-07T15:23:49;97050.13;;;9.50;100.00
8061;BME280;4073;42.626;25.386;2022-12-07T15:26:15;97035.72;;;9.36;100.00
8061;BME280;4073;42.626;25.386;2022-12-07T15:28:41;97056.50;;;9.44;100.00
8061;BME280;4073;42.626;25.386;2022-12-07T15:31:16;97060.78;;;9.40;100.00